AIRPORT_AIRPORT_METAR
METAR FOR LFRS
ADDS - METARS form results

(1243 UTC 28 May 2020)
Data provider http://aviationweather.gov/metar/data/
 
METAR text: LFRS 281230Z AUTO 06012KT 030V100 CAVOK 26/11 Q1025 NOSIG
Conditions at: LFRS (NANTES/CHATEAU B, FR) observed 1230 UTC 28 May 2020
Temperature: 26.0°C (79°F)
Dewpoint: 11.0°C (52°F) [RH = 39%]
Pressure (altimeter): 30.27 inches Hg (1025.0 mb)
Winds: from the ENE (60 degrees) at 14 MPH (12 knots; 6.2 m/s)
Visibility: 6 or more miles (10+ km)
Ceiling: ceiling and visibility are OK
Clouds: unknown
Weather: no significant weather observed at this time

METAR text: LFRS 281200Z AUTO 07012KT 020V090 CAVOK 26/12 Q1026 NOSIG
Conditions at: LFRS (NANTES/CHATEAU B, FR) observed 1200 UTC 28 May 2020
Temperature: 26.0°C (79°F)
Dewpoint: 12.0°C (54°F) [RH = 42%]
Pressure (altimeter): 30.30 inches Hg (1026.0 mb)
Winds: from the ENE (70 degrees) at 14 MPH (12 knots; 6.2 m/s)
Visibility: 6 or more miles (10+ km)
Ceiling: ceiling and visibility are OK
Clouds: unknown
Weather: no significant weather observed at this time

Forecast for: LFRS (NANTES/CHATEAU B, FR)
Text: TAF LFRS 281100Z 2812/2918 05010KT CAVOK
Forecast period: 1200 UTC 28 May 2020 to 1800 UTC 29 May 2020
Forecast type: FROM: standard forecast or significant change
Winds: from the NE (50 degrees) at 12 MPH (10 knots; 5.1 m/s)
Visibility: 6 or more miles 10+ km)
Ceiling: unknown
Clouds: missing
Weather: NSW  (no significant weather)

 AIRPORT_AIRPORT_MAP

 AIRPORT_RUNWAY_INFO
AIRPORT_RUNWAY 03 AIRPORT_RUNWAY_LENGTH 9514 ft AIRPORT_RUNWAY_WIDTH 148 ft
AIRPORT_RUNWAY_ELEVATION 73 ft AIRPORT_RUNWAY_THRESHOLD 0 ft AIRPORT_RUNWAY_HEADING 28
AIRPORT_RUNWAY 21 AIRPORT_RUNWAY_LENGTH 9514 ft AIRPORT_RUNWAY_WIDTH 148 ft
AIRPORT_RUNWAY_ELEVATION 86 ft AIRPORT_RUNWAY_THRESHOLD 694 ft AIRPORT_RUNWAY_HEADING 208

 AIRPORT_AIRPORT_FREQUENCIES
AIRPORT_AIRPORT_NAVAIDS_TYPE APP AIRPORT_AIRPORT_NAVAIDS_NAME APP AIRPORT_AIRPORT_NAVAIDS_FREQ 130.275 MHZ
AIRPORT_AIRPORT_NAVAIDS_TYPE ATIS AIRPORT_AIRPORT_NAVAIDS_NAME ATIS AIRPORT_AIRPORT_NAVAIDS_FREQ 126.925 MHZ
AIRPORT_AIRPORT_NAVAIDS_TYPE GND AIRPORT_AIRPORT_NAVAIDS_NAME GND AIRPORT_AIRPORT_NAVAIDS_FREQ 121.875 MHZ
AIRPORT_AIRPORT_NAVAIDS_TYPE INFO AIRPORT_AIRPORT_NAVAIDS_NAME INFO AIRPORT_AIRPORT_NAVAIDS_FREQ 129.875 MHZ
AIRPORT_AIRPORT_NAVAIDS_TYPE TWR AIRPORT_AIRPORT_NAVAIDS_NAME TWR AIRPORT_AIRPORT_NAVAIDS_FREQ 118.65 MHZ

 AIRPORT_AIRPORT_NAVAIDS
AIRPORT_AIRPORT_NAVAIDS_TYPE NDB AIRPORT_AIRPORT_NAVAIDS_NAME Nantes AIRPORT_AIRPORT_NAVAIDS_FREQ 369 KHZ
AIRPORT_AIRPORT_NAVAIDS_TYPE VOR-DME AIRPORT_AIRPORT_NAVAIDS_NAME Nantes AIRPORT_AIRPORT_NAVAIDS_FREQ 115500 KHZ



Copyright © 2005-2020 - Virtuel Air Alsace - Tous droits réservés